sensor_id;sensor_type;location;lat;lon;timestamp;P1;durP1;ratioP1;P2;durP2;ratioP2
20318;SDS011;10317;47.254;11.314;2024-01-15T00:00:38;20.02;;;10.55;;
20318;SDS011;10317;47.254;11.314;2024-01-15T00:03:04;19.80;;;9.75;;
20318;SDS011;10317;47.254;11.314;2024-01-15T00:05:30;20.55;;;10.73;;
20318;SDS011;10317;47.254;11.314;2024-01-15T00:07:55;17.15;;;10.57;;
20318;SDS011;10317;47.254;11.314;2024-01-15T00:10:21;17.45;;;10.45;;
20318;SDS011;10317;47.254;11.314;2024-01-15T00:12:47;19.67;;;10.65;;
20318;SDS011;10317;47.254;11.314;2024-01-15T00:15:12;18.38;;;11.07;;
20318;SDS011;10317;47.254;11.314;2024-01-15T00:17:38;17.55;;;10.02;;
20318;SDS011;10317;47.254;11.314;2024-01-15T00:20:04;19.80;;;10.05;;
20318;SDS011;10317;47.254;11.314;2024-01-15T00:22:30;17.73;;;9.25;;
20318;SDS011;10317;47.254;11.314;2024-01-15T00:24:57;17.20;;;9.90;;
20318;SDS011;10317;47.254;11.314;2024-01-15T00:27:23;18.77;;;10.32;;
20318;SDS011;10317;47.254;11.314;2024-01-15T00:29:49;16.33;;;10.98;;
20318;SDS011;10317;47.254;11.314;2024-01-15T00:32:16;20.42;;;10.30;;
20318;SDS011;10317;47.254;11.314;2024-01-15T00:34:42;16.70;;;10.07;;
20318;SDS011;10317;47.254;11.314;2024-01-15T00:37:07;21.90;;;11.35;;
20318;SDS011;10317;47.254;11.314;2024-01-15T00:39:33;17.63;;;10.63;;
20318;SDS011;10317;47.254;11.314;2024-01-15T00:41:59;16.17;;;10.45;;
20318;SDS011;10317;47.254;11.314;2024-01-15T00:44:24;17.13;;;10.35;;
20318;SDS011;10317;47.254;11.314;2024-01-15T00:46:50;18.30;;;9.95;;
20318;SDS011;10317;47.254;11.314;2024-01-15T00:49:16;18.98;;;10.57;;
20318;SDS011;10317;47.254;11.314;2024-01-15T00:51:41;17.67;;;10.02;;
20318;SDS011;10317;47.254;11.314;2024-01-15T00:54:07;13.90;;;9.20;;
20318;SDS011;10317;47.254;11.314;2024-01-15T00:56:33;16.70;;;8.30;;
20318;SDS011;10317;47.254;11.314;2024-01-15T00:58:59;14.23;;;9.00;;
20318;SDS011;10317;47.254;11.314;2024-01-15T01:01:25;13.88;;;8.68;;
20318;SDS011;10317;47.254;11.314;2024-01-15T01:03:50;14.90;;;8.57;;
20318;SDS011;10317;47.254;11.314;2024-01-15T01:06:16;15.07;;;9.80;;
20318;SDS011;10317;47.254;11.314;2024-01-15T01:08:42;17.58;;;9.98;;
20318;SDS011;10317;47.254;11.314;2024-01-15T01:11:07;14.75;;;8.90;;
20318;SDS011;10317;47.254;11.314;2024-01-15T01:13:37;15.82;;;8.38;;
20318;SDS011;10317;47.254;11.314;2024-01-15T01:16:03;19.27;;;9.77;;
20318;SDS011;10317;47.254;11.314;2024-01-15T01:18:28;16.25;;;9.75;;
20318;SDS011;10317;47.254;11.314;2024-01-15T01:20:54;13.88;;;8.52;;
20318;SDS011;10317;47.254;11.314;2024-01-15T01:23:20;12.05;;;8.10;;
20318;SDS011;10317;47.254;11.314;2024-01-15T01:25:46;16.50;;;8.95;;
20318;SDS011;10317;47.254;11.314;2024-01-15T01:28:11;12.88;;;8.57;;
20318;SDS011;10317;47.254;11.314;2024-01-15T01:30:37;17.13;;;8.82;;
20318;SDS011;10317;47.254;11.314;2024-01-15T01:33:02;15.50;;;9.07;;
20318;SDS011;10317;47.254;11.314;2024-01-15T01:35:28;13.70;;;8.70;;
20318;SDS011;10317;47.254;11.314;2024-01-15T01:37:54;15.80;;;9.18;;
20318;SDS011;10317;47.254;11.314;2024-01-15T01:40:19;23.85;;;10.45;;
20318;SDS011;10317;47.254;11.314;2024-01-15T01:42:45;16.08;;;10.68;;
20318;SDS011;10317;47.254;11.314;2024-01-15T01:45:11;19.10;;;9.68;;
20318;SDS011;10317;47.254;11.314;2024-01-15T01:47:37;17.48;;;9.50;;
20318;SDS011;10317;47.254;11.314;2024-01-15T01:50:03;15.02;;;9.82;;
20318;SDS011;10317;47.254;11.314;2024-01-15T01:52:30;25.42;;;11.10;;
20318;SDS011;10317;47.254;11.314;2024-01-15T01:54:56;14.88;;;9.90;;
20318;SDS011;10317;47.254;11.314;2024-01-15T01:57:23;22.20;;;9.30;;
20318;SDS011;10317;47.254;11.314;2024-01-15T01:59:49;19.67;;;9.23;;
20318;SDS011;10317;47.254;11.314;2024-01-15T02:02:15;14.52;;;8.60;;
20318;SDS011;10317;47.254;11.314;2024-01-15T02:04:41;17.92;;;10.70;;
20318;SDS011;10317;47.254;11.314;2024-01-15T02:07:08;14.90;;;9.30;;
20318;SDS011;10317;47.254;11.314;2024-01-15T02:09:35;11.02;;;9.07;;
20318;SDS011;10317;47.254;11.314;2024-01-15T02:12:00;18.55;;;9.45;;
20318;SDS011;10317;47.254;11.314;2024-01-15T02:14:26;15.13;;;9.38;;
20318;SDS011;10317;47.254;11.314;2024-01-15T02:16:52;15.32;;;9.20;;
20318;SDS011;10317;47.254;11.314;2024-01-15T02:19:18;15.30;;;9.90;;
20318;SDS011;10317;47.254;11.314;2024-01-15T02:21:44;16.75;;;8.80;;
20318;SDS011;10317;47.254;11.314;2024-01-15T02:24:10;14.23;;;9.27;;
20318;SDS011;10317;47.254;11.314;2024-01-15T02:26:36;11.15;;;9.10;;
20318;SDS011;10317;47.254;11.314;2024-01-15T02:29:03;18.45;;;9.23;;
20318;SDS011;10317;47.254;11.314;2024-01-15T02:31:31;11.77;;;8.38;;
20318;SDS011;10317;47.254;11.314;2024-01-15T02:33:57;17.30;;;9.13;;
20318;SDS011;10317;47.254;11.314;2024-01-15T02:36:23;15.98;;;9.05;;
20318;SDS011;10317;47.254;11.314;2024-01-15T02:38:48;14.30;;;9.05;;
20318;SDS011;10317;47.254;11.314;2024-01-15T02:41:14;13.65;;;8.15;;
20318;SDS011;10317;47.254;11.314;2024-01-15T02:43:40;16.75;;;9.15;;
20318;SDS011;10317;47.254;11.314;2024-01-15T02:46:06;20.40;;;10.07;;
20318;SDS011;10317;47.254;11.314;2024-01-15T02:48:32;12.98;;;8.88;;
20318;SDS011;10317;47.254;11.314;2024-01-15T02:50:59;13.40;;;8.27;;
20318;SDS011;10317;47.254;11.314;2024-01-15T02:53:26;13.70;;;8.43;;
20318;SDS011;10317;47.254;11.314;2024-01-15T02:55:51;16.85;;;9.52;;
20318;SDS011;10317;47.254;11.314;2024-01-15T02:58:17;16.38;;;9.68;;
20318;SDS011;10317;47.254;11.314;2024-01-15T03:00:43;18.20;;;9.63;;
20318;SDS011;10317;47.254;11.314;2024-01-15T03:03:09;14.95;;;10.00;;
20318;SDS011;10317;47.254;11.314;2024-01-15T03:05:34;13.10;;;9.15;;
20318;SDS011;10317;47.254;11.314;2024-01-15T03:08:00;15.60;;;9.05;;
20318;SDS011;10317;47.254;11.314;2024-01-15T03:10:25;17.13;;;9.85;;
20318;SDS011;10317;47.254;11.314;2024-01-15T03:12:51;12.15;;;9.43;;
20318;SDS011;10317;47.254;11.314;2024-01-15T03:15:17;24.55;;;10.85;;
20318;SDS011;10317;47.254;11.314;2024-01-15T03:17:43;17.00;;;11.20;;
20318;SDS011;10317;47.254;11.314;2024-01-15T03:20:09;15.68;;;10.52;;
20318;SDS011;10317;47.254;11.314;2024-01-15T03:22:35;15.93;;;10.23;;
20318;SDS011;10317;47.254;11.314;2024-01-15T03:25:01;14.73;;;9.15;;
20318;SDS011;10317;47.254;11.314;2024-01-15T03:27:27;15.20;;;9.02;;
20318;SDS011;10317;47.254;11.314;2024-01-15T03:29:52;20.77;;;10.23;;
20318;SDS011;10317;47.254;11.314;2024-01-15T03:32:18;16.58;;;10.25;;
20318;SDS011;10317;47.254;11.314;2024-01-15T03:34:46;15.40;;;10.23;;
20318;SDS011;10317;47.254;11.314;2024-01-15T03:37:17;14.65;;;9.70;;
20318;SDS011;10317;47.254;11.314;2024-01-15T03:39:42;14.30;;;9.77;;
20318;SDS011;10317;47.254;11.314;2024-01-15T03:42:08;16.05;;;9.63;;
20318;SDS011;10317;47.254;11.314;2024-01-15T03:44:34;20.20;;;9.93;;
20318;SDS011;10317;47.254;11.314;2024-01-15T03:46:59;20.55;;;10.10;;
20318;SDS011;10317;47.254;11.314;2024-01-15T03:49:25;21.33;;;11.18;;
20318;SDS011;10317;47.254;11.314;2024-01-15T03:51:51;19.15;;;10.68;;
20318;SDS011;10317;47.254;11.314;2024-01-15T03:54:17;19.83;;;12.20;;
20318;SDS011;10317;47.254;11.314;2024-01-15T03:56:42;22.90;;;10.90;;
20318;SDS011;10317;47.254;11.314;2024-01-15T03:59:08;12.95;;;9.55;;
20318;SDS011;10317;47.254;11.314;2024-01-15T04:01:34;20.27;;;10.38;;
20318;SDS011;10317;47.254;11.314;2024-01-15T04:03:59;18.48;;;11.40;;
20318;SDS011;10317;47.254;11.314;2024-01-15T04:06:25;20.02;;;10.20;;
20318;SDS011;10317;47.254;11.314;2024-01-15T04:08:51;15.05;;;9.77;;
20318;SDS011;10317;47.254;11.314;2024-01-15T04:11:16;21.02;;;10.82;;
20318;SDS011;10317;47.254;11.314;2024-01-15T04:13:42;21.45;;;11.73;;
20318;SDS011;10317;47.254;11.314;2024-01-15T04:16:08;19.92;;;11.88;;
20318;SDS011;10317;47.254;11.314;2024-01-15T04:18:33;20.45;;;11.75;;
20318;SDS011;10317;47.254;11.314;2024-01-15T04:20:59;20.10;;;12.35;;
20318;SDS011;10317;47.254;11.314;2024-01-15T04:23:24;20.58;;;11.57;;
20318;SDS011;10317;47.254;11.314;2024-01-15T04:25:50;17.02;;;10.50;;
20318;SDS011;10317;47.254;11.314;2024-01-15T04:28:16;26.48;;;11.13;;
20318;SDS011;10317;47.254;11.314;2024-01-15T04:30:41;19.85;;;11.43;;
20318;SDS011;10317;47.254;11.314;2024-01-15T04:33:07;16.92;;;10.88;;
20318;SDS011;10317;47.254;11.314;2024-01-15T04:35:33;21.98;;;11.90;;
20318;SDS011;10317;47.254;11.314;2024-01-15T04:37:59;18.45;;;10.02;;
20318;SDS011;10317;47.254;11.314;2024-01-15T04:40:25;15.25;;;11.00;;
20318;SDS011;10317;47.254;11.314;2024-01-15T04:42:52;16.35;;;10.82;;
20318;SDS011;10317;47.254;11.314;2024-01-15T04:45:19;17.08;;;10.90;;
20318;SDS011;10317;47.254;11.314;2024-01-15T04:47:47;18.27;;;11.35;;
20318;SDS011;10317;47.254;11.314;2024-01-15T04:50:13;17.75;;;11.48;;
20318;SDS011;10317;47.254;11.314;2024-01-15T04:52:39;20.60;;;12.85;;
20318;SDS011;10317;47.254;11.314;2024-01-15T04:55:05;18.98;;;11.75;;
20318;SDS011;10317;47.254;11.314;2024-01-15T04:57:30;22.80;;;11.63;;
20318;SDS011;10317;47.254;11.314;2024-01-15T04:59:57;22.50;;;11.95;;
20318;SDS011;10317;47.254;11.314;2024-01-15T05:02:22;22.25;;;11.30;;
20318;SDS011;10317;47.254;11.314;2024-01-15T05:04:48;18.30;;;11.40;;
20318;SDS011;10317;47.254;11.314;2024-01-15T05:07:14;16.45;;;11.68;;
20318;SDS011;10317;47.254;11.314;2024-01-15T05:09:39;18.85;;;11.82;;
20318;SDS011;10317;47.254;11.314;2024-01-15T05:12:05;25.45;;;12.13;;
20318;SDS011;10317;47.254;11.314;2024-01-15T05:14:31;17.65;;;11.65;;
20318;SDS011;10317;47.254;11.314;2024-01-15T05:16:56;17.33;;;12.13;;
20318;SDS011;10317;47.254;11.314;2024-01-15T05:19:22;19.17;;;11.20;;
20318;SDS011;10317;47.254;11.314;2024-01-15T05:21:48;23.25;;;11.30;;
20318;SDS011;10317;47.254;11.314;2024-01-15T05:24:14;15.18;;;11.38;;
20318;SDS011;10317;47.254;11.314;2024-01-15T05:26:39;18.02;;;10.45;;
20318;SDS011;10317;47.254;11.314;2024-01-15T05:29:05;21.83;;;12.07;;
20318;SDS011;10317;47.254;11.314;2024-01-15T05:31:30;18.40;;;10.25;;
20318;SDS011;10317;47.254;11.314;2024-01-15T05:33:56;23.27;;;11.77;;
20318;SDS011;10317;47.254;11.314;2024-01-15T05:36:22;17.92;;;10.52;;
20318;SDS011;10317;47.254;11.314;2024-01-15T05:38:47;22.92;;;12.55;;
20318;SDS011;10317;47.254;11.314;2024-01-15T05:41:14;20.52;;;12.05;;
20318;SDS011;10317;47.254;11.314;2024-01-15T05:43:40;24.33;;;12.65;;
20318;SDS011;10317;47.254;11.314;2024-01-15T05:46:06;19.73;;;11.40;;
20318;SDS011;10317;47.254;11.314;2024-01-15T05:48:31;17.92;;;11.13;;
20318;SDS011;10317;47.254;11.314;2024-01-15T05:50:57;16.08;;;11.32;;
20318;SDS011;10317;47.254;11.314;2024-01-15T05:53:22;17.13;;;10.27;;
20318;SDS011;10317;47.254;11.314;2024-01-15T05:55:48;17.60;;;10.70;;
20318;SDS011;10317;47.254;11.314;2024-01-15T05:58:14;13.38;;;9.73;;
20318;SDS011;10317;47.254;11.314;2024-01-15T06:00:39;16.85;;;11.75;;
20318;SDS011;10317;47.254;11.314;2024-01-15T06:03:05;17.13;;;9.73;;
20318;SDS011;10317;47.254;11.314;2024-01-15T06:05:31;22.42;;;11.23;;
20318;SDS011;10317;47.254;11.314;2024-01-15T06:07:56;16.58;;;10.55;;
20318;SDS011;10317;47.254;11.314;2024-01-15T06:10:22;18.10;;;10.93;;
20318;SDS011;10317;47.254;11.314;2024-01-15T06:12:48;15.90;;;10.13;;
20318;SDS011;10317;47.254;11.314;2024-01-15T06:15:13;18.10;;;9.98;;
20318;SDS011;10317;47.254;11.314;2024-01-15T06:17:39;22.67;;;10.70;;
20318;SDS011;10317;47.254;11.314;2024-01-15T06:20:05;20.23;;;11.43;;
20318;SDS011;10317;47.254;11.314;2024-01-15T06:22:31;15.40;;;10.52;;
20318;SDS011;10317;47.254;11.314;2024-01-15T06:24:57;20.02;;;10.82;;
20318;SDS011;10317;47.254;11.314;2024-01-15T06:27:23;16.38;;;11.50;;
20318;SDS011;10317;47.254;11.314;2024-01-15T06:29:48;15.90;;;11.50;;
20318;SDS011;10317;47.254;11.314;2024-01-15T06:32:14;25.70;;;10.93;;
20318;SDS011;10317;47.254;11.314;2024-01-15T06:34:40;18.67;;;11.00;;
20318;SDS011;10317;47.254;11.314;2024-01-15T06:37:05;15.65;;;10.13;;
20318;SDS011;10317;47.254;11.314;2024-01-15T06:39:31;16.45;;;11.63;;
20318;SDS011;10317;47.254;11.314;2024-01-15T06:41:57;17.92;;;11.15;;
20318;SDS011;10317;47.254;11.314;2024-01-15T06:44:23;16.15;;;10.93;;
20318;SDS011;10317;47.254;11.314;2024-01-15T06:46:48;15.38;;;10.52;;
20318;SDS011;10317;47.254;11.314;2024-01-15T06:49:14;15.52;;;11.35;;
20318;SDS011;10317;47.254;11.314;2024-01-15T06:51:40;17.45;;;10.75;;
20318;SDS011;10317;47.254;11.314;2024-01-15T06:54:06;15.23;;;10.20;;
20318;SDS011;10317;47.254;11.314;2024-01-15T06:56:32;17.20;;;10.52;;
20318;SDS011;10317;47.254;11.314;2024-01-15T06:58:58;17.98;;;10.77;;
20318;SDS011;10317;47.254;11.314;2024-01-15T07:01:23;16.20;;;10.40;;
20318;SDS011;10317;47.254;11.314;2024-01-15T07:03:49;16.55;;;11.18;;
20318;SDS011;10317;47.254;11.314;2024-01-15T07:06:14;19.08;;;11.13;;
20318;SDS011;10317;47.254;11.314;2024-01-15T07:08:41;17.35;;;10.32;;
20318;SDS011;10317;47.254;11.314;2024-01-15T07:11:07;20.17;;;11.88;;
20318;SDS011;10317;47.254;11.314;2024-01-15T07:13:33;19.05;;;11.25;;
20318;SDS011;10317;47.254;11.314;2024-01-15T07:16:00;16.58;;;11.27;;
20318;SDS011;10317;47.254;11.314;2024-01-15T07:18:26;22.85;;;12.52;;
20318;SDS011;10317;47.254;11.314;2024-01-15T07:20:52;21.75;;;13.13;;
20318;SDS011;10317;47.254;11.314;2024-01-15T07:23:18;21.30;;;12.15;;
20318;SDS011;10317;47.254;11.314;2024-01-15T07:25:43;20.80;;;12.63;;
20318;SDS011;10317;47.254;11.314;2024-01-15T07:28:09;20.95;;;13.05;;
20318;SDS011;10317;47.254;11.314;2024-01-15T07:30:34;16.90;;;11.48;;
20318;SDS011;10317;47.254;11.314;2024-01-15T07:33:00;19.60;;;13.02;;
20318;SDS011;10317;47.254;11.314;2024-01-15T07:35:26;21.08;;;13.23;;
20318;SDS011;10317;47.254;11.314;2024-01-15T07:37:52;19.35;;;11.88;;
20318;SDS011;10317;47.254;11.314;2024-01-15T07:40:17;20.63;;;12.23;;
20318;SDS011;10317;47.254;11.314;2024-01-15T07:42:43;19.17;;;12.23;;
20318;SDS011;10317;47.254;11.314;2024-01-15T07:45:10;21.92;;;13.18;;
20318;SDS011;10317;47.254;11.314;2024-01-15T07:47:36;19.30;;;12.20;;
20318;SDS011;10317;47.254;11.314;2024-01-15T07:50:02;24.98;;;12.90;;
20318;SDS011;10317;47.254;11.314;2024-01-15T07:52:29;16.23;;;12.07;;
20318;SDS011;10317;47.254;11.314;2024-01-15T07:54:55;22.77;;;13.73;;
20318;SDS011;10317;47.254;11.314;2024-01-15T07:57:21;27.50;;;13.45;;
20318;SDS011;10317;47.254;11.314;2024-01-15T07:59:47;21.02;;;12.73;;
20318;SDS011;10317;47.254;11.314;2024-01-15T08:02:13;21.70;;;13.27;;
20318;SDS011;10317;47.254;11.314;2024-01-15T08:04:39;27.60;;;14.68;;
20318;SDS011;10317;47.254;11.314;2024-01-15T08:07:04;27.17;;;14.13;;
20318;SDS011;10317;47.254;11.314;2024-01-15T08:09:32;22.83;;;14.02;;
20318;SDS011;10317;47.254;11.314;2024-01-15T08:11:57;21.20;;;14.45;;
20318;SDS011;10317;47.254;11.314;2024-01-15T08:14:23;23.23;;;14.45;;
20318;SDS011;10317;47.254;11.314;2024-01-15T08:16:49;22.40;;;14.23;;
20318;SDS011;10317;47.254;11.314;2024-01-15T08:19:15;19.77;;;13.98;;
20318;SDS011;10317;47.254;11.314;2024-01-15T08:21:41;21.50;;;13.85;;
20318;SDS011;10317;47.254;11.314;2024-01-15T08:24:07;24.40;;;14.10;;
20318;SDS011;10317;47.254;11.314;2024-01-15T08:26:33;21.30;;;13.60;;
20318;SDS011;10317;47.254;11.314;2024-01-15T08:28:59;22.67;;;14.40;;
20318;SDS011;10317;47.254;11.314;2024-01-15T08:31:25;24.02;;;12.68;;
20318;SDS011;10317;47.254;11.314;2024-01-15T08:33:51;20.30;;;13.30;;
20318;SDS011;10317;47.254;11.314;2024-01-15T08:36:16;18.48;;;11.75;;
20318;SDS011;10317;47.254;11.314;2024-01-15T08:38:43;24.92;;;13.55;;
20318;SDS011;10317;47.254;11.314;2024-01-15T08:41:09;17.52;;;12.68;;
20318;SDS011;10317;47.254;11.314;2024-01-15T08:43:35;19.98;;;12.95;;
20318;SDS011;10317;47.254;11.314;2024-01-15T08:46:02;16.60;;;12.30;;
20318;SDS011;10317;47.254;11.314;2024-01-15T08:48:28;20.73;;;13.63;;
20318;SDS011;10317;47.254;11.314;2024-01-15T08:50:54;15.80;;;11.55;;
20318;SDS011;10317;47.254;11.314;2024-01-15T08:53:20;15.70;;;10.68;;
20318;SDS011;10317;47.254;11.314;2024-01-15T08:55:46;16.52;;;11.82;;
20318;SDS011;10317;47.254;11.314;2024-01-15T08:58:12;17.15;;;12.65;;
20318;SDS011;10317;47.254;11.314;2024-01-15T09:00:38;19.35;;;12.00;;
20318;SDS011;10317;47.254;11.314;2024-01-15T09:03:04;14.73;;;11.15;;
20318;SDS011;10317;47.254;11.314;2024-01-15T09:05:29;16.60;;;11.02;;
20318;SDS011;10317;47.254;11.314;2024-01-15T09:07:55;16.83;;;10.57;;
20318;SDS011;10317;47.254;11.314;2024-01-15T09:10:21;17.00;;;11.27;;
20318;SDS011;10317;47.254;11.314;2024-01-15T09:12:47;15.45;;;10.73;;
20318;SDS011;10317;47.254;11.314;2024-01-15T09:15:14;17.98;;;11.65;;
20318;SDS011;10317;47.254;11.314;2024-01-15T09:17:40;19.52;;;11.80;;
20318;SDS011;10317;47.254;11.314;2024-01-15T09:20:06;13.35;;;10.38;;
20318;SDS011;10317;47.254;11.314;2024-01-15T09:22:32;15.48;;;10.48;;
20318;SDS011;10317;47.254;11.314;2024-01-15T09:24:58;16.95;;;10.65;;
20318;SDS011;10317;47.254;11.314;2024-01-15T09:27:23;14.07;;;9.50;;
20318;SDS011;10317;47.254;11.314;2024-01-15T09:29:51;19.45;;;10.05;;
20318;SDS011;10317;47.254;11.314;2024-01-15T09:32:17;12.13;;;9.57;;
20318;SDS011;10317;47.254;11.314;2024-01-15T09:34:43;17.75;;;9.73;;
20318;SDS011;10317;47.254;11.314;2024-01-15T09:37:11;16.95;;;11.10;;
20318;SDS011;10317;47.254;11.314;2024-01-15T09:39:37;15.32;;;9.40;;
20318;SDS011;10317;47.254;11.314;2024-01-15T09:42:03;17.00;;;9.88;;
20318;SDS011;10317;47.254;11.314;2024-01-15T09:44:29;14.15;;;9.52;;
20318;SDS011;10317;47.254;11.314;2024-01-15T09:46:55;14.65;;;10.23;;
20318;SDS011;10317;47.254;11.314;2024-01-15T09:49:22;12.75;;;8.73;;
20318;SDS011;10317;47.254;11.314;2024-01-15T09:51:48;17.10;;;10.73;;
20318;SDS011;10317;47.254;11.314;2024-01-15T09:54:14;13.02;;;9.57;;
20318;SDS011;10317;47.254;11.314;2024-01-15T09:56:42;14.25;;;9.85;;
20318;SDS011;10317;47.254;11.314;2024-01-15T09:59:13;15.48;;;10.05;;
20318;SDS011;10317;47.254;11.314;2024-01-15T10:01:41;13.48;;;10.30;;
20318;SDS011;10317;47.254;11.314;2024-01-15T10:04:09;12.88;;;10.00;;
20318;SDS011;10317;47.254;11.314;2024-01-15T10:06:35;14.10;;;9.95;;
20318;SDS011;10317;47.254;11.314;2024-01-15T10:09:03;15.02;;;9.15;;
20318;SDS011;10317;47.254;11.314;2024-01-15T10:11:28;14.73;;;9.90;;
20318;SDS011;10317;47.254;11.314;2024-01-15T10:13:56;14.68;;;10.23;;
20318;SDS011;10317;47.254;11.314;2024-01-15T10:16:22;15.43;;;9.40;;
20318;SDS011;10317;47.254;11.314;2024-01-15T10:18:49;17.30;;;10.70;;
20318;SDS011;10317;47.254;11.314;2024-01-15T10:21:14;15.88;;;9.57;;
20318;SDS011;10317;47.254;11.314;2024-01-15T10:23:41;10.23;;;7.82;;
20318;SDS011;10317;47.254;11.314;2024-01-15T10:26:07;11.23;;;8.38;;
20318;SDS011;10317;47.254;11.314;2024-01-15T10:28:33;14.27;;;8.38;;
20318;SDS011;10317;47.254;11.314;2024-01-15T10:30:59;9.50;;;6.82;;
20318;SDS011;10317;47.254;11.314;2024-01-15T10:33:25;8.98;;;7.05;;
20318;SDS011;10317;47.254;11.314;2024-01-15T10:35:55;8.02;;;6.43;;
20318;SDS011;10317;47.254;11.314;2024-01-15T10:38:22;9.35;;;6.70;;
20318;SDS011;10317;47.254;11.314;2024-01-15T10:40:53;8.52;;;6.20;;
20318;SDS011;10317;47.254;11.314;2024-01-15T10:43:19;11.60;;;6.65;;
20318;SDS011;10317;47.254;11.314;2024-01-15T10:45:46;10.35;;;7.57;;
20318;SDS011;10317;47.254;11.314;2024-01-15T10:48:13;10.32;;;6.70;;
20318;SDS011;10317;47.254;11.314;2024-01-15T10:50:39;7.05;;;6.10;;
20318;SDS011;10317;47.254;11.314;2024-01-15T10:53:05;9.02;;;6.75;;
20318;SDS011;10317;47.254;11.314;2024-01-15T10:55:32;9.05;;;6.53;;
20318;SDS011;10317;47.254;11.314;2024-01-15T10:58:00;8.73;;;6.43;;
20318;SDS011;10317;47.254;11.314;2024-01-15T11:00:26;10.57;;;6.68;;
20318;SDS011;10317;47.254;11.314;2024-01-15T11:02:52;9.68;;;6.20;;
20318;SDS011;10317;47.254;11.314;2024-01-15T11:05:21;8.98;;;6.50;;
20318;SDS011;10317;47.254;11.314;2024-01-15T11:07:48;9.00;;;6.50;;
20318;SDS011;10317;47.254;11.314;2024-01-15T11:10:37;8.32;;;6.10;;
20318;SDS011;10317;47.254;11.314;2024-01-15T11:13:39;7.13;;;5.97;;
20318;SDS011;10317;47.254;11.314;2024-01-15T11:21:22;6.55;;;5.55;;
20318;SDS011;10317;47.254;11.314;2024-01-15T11:23:58;6.72;;;5.25;;
20318;SDS011;10317;47.254;11.314;2024-01-15T11:29:07;6.00;;;5.20;;
20318;SDS011;10317;47.254;11.314;2024-01-15T11:34:09;7.63;;;5.93;;
20318;SDS011;10317;47.254;11.314;2024-01-15T11:44:24;5.90;;;4.80;;
20318;SDS011;10317;47.254;11.314;2024-01-15T11:47:00;6.53;;;5.03;;
20318;SDS011;10317;47.254;11.314;2024-01-15T11:52:33;5.43;;;4.93;;
20318;SDS011;10317;47.254;11.314;2024-01-15T12:00:05;8.13;;;5.15;;
20318;SDS011;10317;47.254;11.314;2024-01-15T12:02:33;7.03;;;4.85;;
20318;SDS011;10317;47.254;11.314;2024-01-15T12:04:59;5.13;;;4.60;;
20318;SDS011;10317;47.254;11.314;2024-01-15T12:07:25;6.60;;;4.70;;
20318;SDS011;10317;47.254;11.314;2024-01-15T12:09:50;6.03;;;4.35;;
20318;SDS011;10317;47.254;11.314;2024-01-15T12:12:26;5.25;;;4.13;;
20318;SDS011;10317;47.254;11.314;2024-01-15T12:15:01;6.63;;;4.43;;
20318;SDS011;10317;47.254;11.314;2024-01-15T12:17:27;6.55;;;4.78;;
20318;SDS011;10317;47.254;11.314;2024-01-15T12:19:53;5.72;;;4.20;;
20318;SDS011;10317;47.254;11.314;2024-01-15T12:22:19;5.50;;;4.15;;
20318;SDS011;10317;47.254;11.314;2024-01-15T12:24:45;5.55;;;4.93;;
20318;SDS011;10317;47.254;11.314;2024-01-15T12:27:11;4.25;;;3.85;;
20318;SDS011;10317;47.254;11.314;2024-01-15T12:29:37;5.05;;;4.03;;
20318;SDS011;10317;47.254;11.314;2024-01-15T12:32:04;5.03;;;4.53;;
20318;SDS011;10317;47.254;11.314;2024-01-15T12:34:31;6.43;;;4.30;;
20318;SDS011;10317;47.254;11.314;2024-01-15T12:36:57;4.43;;;3.97;;
20318;SDS011;10317;47.254;11.314;2024-01-15T12:39:24;4.65;;;4.22;;
20318;SDS011;10317;47.254;11.314;2024-01-15T12:41:50;5.85;;;4.30;;
20318;SDS011;10317;47.254;11.314;2024-01-15T12:44:16;6.13;;;3.95;;
20318;SDS011;10317;47.254;11.314;2024-01-15T12:46:42;4.38;;;3.97;;
20318;SDS011;10317;47.254;11.314;2024-01-15T12:49:08;6.03;;;4.30;;
20318;SDS011;10317;47.254;11.314;2024-01-15T12:51:34;5.63;;;4.05;;
20318;SDS011;10317;47.254;11.314;2024-01-15T12:54:00;5.00;;;3.85;;
20318;SDS011;10317;47.254;11.314;2024-01-15T12:56:25;4.32;;;3.92;;
20318;SDS011;10317;47.254;11.314;2024-01-15T12:58:51;7.90;;;4.22;;
20318;SDS011;10317;47.254;11.314;2024-01-15T13:01:17;3.97;;;3.67;;
20318;SDS011;10317;47.254;11.314;2024-01-15T13:03:42;4.18;;;3.63;;
20318;SDS011;10317;47.254;11.314;2024-01-15T13:06:08;5.85;;;3.83;;
20318;SDS011;10317;47.254;11.314;2024-01-15T13:08:34;4.72;;;4.03;;
20318;SDS011;10317;47.254;11.314;2024-01-15T13:10:59;5.53;;;4.35;;
20318;SDS011;10317;47.254;11.314;2024-01-15T13:13:25;9.02;;;4.00;;
20318;SDS011;10317;47.254;11.314;2024-01-15T13:15:51;4.22;;;3.58;;
20318;SDS011;10317;47.254;11.314;2024-01-15T13:18:17;3.63;;;3.33;;
20318;SDS011;10317;47.254;11.314;2024-01-15T13:20:43;3.92;;;3.30;;
20318;SDS011;10317;47.254;11.314;2024-01-15T13:23:08;3.85;;;3.53;;
20318;SDS011;10317;47.254;11.314;2024-01-15T13:25:34;3.28;;;3.00;;
20318;SDS011;10317;47.254;11.314;2024-01-15T13:28:03;4.47;;;3.17;;
20318;SDS011;10317;47.254;11.314;2024-01-15T13:30:33;4.20;;;3.05;;
20318;SDS011;10317;47.254;11.314;2024-01-15T13:32:59;3.83;;;3.20;;
20318;SDS011;10317;47.254;11.314;2024-01-15T13:35:29;3.63;;;3.33;;
20318;SDS011;10317;47.254;11.314;2024-01-15T13:37:55;3.58;;;3.05;;
20318;SDS011;10317;47.254;11.314;2024-01-15T13:40:20;3.05;;;2.67;;
20318;SDS011;10317;47.254;11.314;2024-01-15T13:42:47;3.67;;;3.28;;
20318;SDS011;10317;47.254;11.314;2024-01-15T13:45:13;4.13;;;3.28;;
20318;SDS011;10317;47.254;11.314;2024-01-15T13:47:42;3.70;;;2.90;;
20318;SDS011;10317;47.254;11.314;2024-01-15T13:50:08;2.88;;;2.55;;
20318;SDS011;10317;47.254;11.314;2024-01-15T13:52:34;8.18;;;2.95;;
20318;SDS011;10317;47.254;11.314;2024-01-15T13:55:01;2.90;;;2.30;;
20318;SDS011;10317;47.254;11.314;2024-01-15T13:57:26;3.60;;;2.55;;
20318;SDS011;10317;47.254;11.314;2024-01-15T13:59:52;5.63;;;2.90;;
20318;SDS011;10317;47.254;11.314;2024-01-15T14:02:18;2.72;;;2.50;;
20318;SDS011;10317;47.254;11.314;2024-01-15T14:04:45;3.17;;;2.88;;
20318;SDS011;10317;47.254;11.314;2024-01-15T14:07:11;3.53;;;2.75;;
20318;SDS011;10317;47.254;11.314;2024-01-15T14:09:36;3.53;;;2.60;;
20318;SDS011;10317;47.254;11.314;2024-01-15T14:12:02;4.30;;;2.22;;
20318;SDS011;10317;47.254;11.314;2024-01-15T14:14:28;6.00;;;2.75;;
20318;SDS011;10317;47.254;11.314;2024-01-15T14:16:54;2.10;;;2.00;;
20318;SDS011;10317;47.254;11.314;2024-01-15T14:19:20;3.95;;;2.10;;
20318;SDS011;10317;47.254;11.314;2024-01-15T14:21:46;2.15;;;2.05;;
20318;SDS011;10317;47.254;11.314;2024-01-15T14:24:11;2.45;;;1.98;;
20318;SDS011;10317;47.254;11.314;2024-01-15T14:26:37;2.17;;;1.98;;
20318;SDS011;10317;47.254;11.314;2024-01-15T14:29:03;3.83;;;2.55;;
20318;SDS011;10317;47.254;11.314;2024-01-15T14:31:28;2.53;;;2.33;;
20318;SDS011;10317;47.254;11.314;2024-01-15T14:33:54;2.17;;;1.83;;
20318;SDS011;10317;47.254;11.314;2024-01-15T14:36:20;2.25;;;1.88;;
20318;SDS011;10317;47.254;11.314;2024-01-15T14:38:46;1.85;;;1.75;;